This is the latest recevied weather packets stored in our database for station/object OH6GPB-4. If no packets are shown the sender has not sent any weather packets the latest 1 day(s).
| Time | Temp. | Humidity | Pressure | Rain* | Wind** | Luminosity | Snow |
|---|---|---|---|---|---|---|---|
| 1778042851 | 3.89° C | 65% | 1003.9 hPa | 0 mm | 4.02 m/s, 283° | 244 W/m² | - |
| 1778041051 | 3.33° C | 67% | 1003.8 hPa | 0 mm | 3.13 m/s, 214° | 40 W/m² | - |
| 1778039243 | 3.33° C | 68% | 1003.3 hPa | 0 mm | 1.34 m/s, 269° | 72 W/m² | - |
| 1778037443 | 2.78° C | 70% | 1003.2 hPa | 0 mm | 1.34 m/s, 253° | 26 W/m² | - |
| 1778035649 | 2.78° C | 71% | 1002.9 hPa | 0 mm | 0.89 m/s, 285° | 25 W/m² | - |
| 1778033860 | 2.78° C | 71% | 1002.7 hPa | 0 mm | 1.79 m/s, 274° | 9 W/m² | - |
| 1778032047 | 2.78° C | 70% | 1002.6 hPa | 0 mm | 0.45 m/s, 286° | 0 W/m² | - |
| 1778030256 | 3.33° C | 69% | 1002.2 hPa | 0 mm | 1.79 m/s, 255° | 0 W/m² | - |
| 1778028447 | 3.33° C | 68% | 1002.1 hPa | 0 mm | 3.13 m/s, 271° | 0 W/m² | - |
| 1778026646 | 3.89° C | 66% | 1001.7 hPa | 0 mm | 2.68 m/s, 245° | 0 W/m² | - |
| 1778024843 | 3.89° C | 66% | 1001.7 hPa | 0 mm | 2.68 m/s, 285° | 0 W/m² | - |
| 1778023053 | 3.89° C | 66% | 1001.5 hPa | 0 mm | 0.89 m/s, 300° | 0 W/m² | - |
| 1778021243 | 3.89° C | 65% | 1001.4 hPa | 0 mm | 1.79 m/s, 259° | 0 W/m² | - |
| 1778019453 | 4.44° C | 63% | 1001.3 hPa | 0 mm | 0.89 m/s, 267° | 0 W/m² | - |
| 1778017645 | 4.44° C | 64% | 1001.2 hPa | 0 mm | 0.45 m/s, 271° | 0 W/m² | - |
| 1778015854 | 4.44° C | 63% | 1001.2 hPa | 0 mm | 1.34 m/s, 251° | 0 W/m² | - |
| 1778014059 | 3.89° C | 67% | 1000.9 hPa | 0 mm | 0 m/s | 0 W/m² | - |
| 1778012249 | 4.44° C | 71% | 1000.7 hPa | 0 mm | 0 m/s | 0 W/m² | - |
| 1778010450 | 5° C | 68% | 1000.7 hPa | 0 mm | 0.45 m/s, 236° | 0 W/m² | - |
| 1778008645 | 5.56° C | 64% | 1000.6 hPa | 0 mm | 1.34 m/s, 282° | 0 W/m² | - |
| 1778006855 | 6.11° C | 60% | 1000.5 hPa | 0 mm | 0.89 m/s, 263° | 12 W/m² | - |
| 1778005045 | 6.67° C | 53% | 1000.1 hPa | 0 mm | 1.79 m/s, 267° | 47 W/m² | - |
| 1778003247 | 7.22° C | 50% | 1000 hPa | 0 mm | 1.34 m/s, 250° | 105 W/m² | - |
| 1778001454 | 6.67° C | 54% | 999.9 hPa | 0 mm | 1.79 m/s, 257° | 44 W/m² | - |
| 1777999641 | 7.22° C | 49% | 999.6 hPa | 0 mm | 2.68 m/s, 241° | 121 W/m² | - |
* Rain latest hour (hover to see other rain measurements)
** Current wind speed in m/s (hover to see current wind gust speed)